createdAt,value
2018-07-09T00:00:57.139Z,0
2018-07-09T00:01:57.224Z,0
2018-07-09T00:02:57.194Z,0
2018-07-09T00:03:57.139Z,0
2018-07-09T00:04:57.136Z,0
2018-07-09T00:05:57.198Z,0
2018-07-09T00:06:57.259Z,0
2018-07-09T00:07:57.164Z,0
2018-07-09T00:08:57.202Z,0
2018-07-09T00:09:57.134Z,0
2018-07-09T00:10:57.210Z,0
2018-07-09T00:11:57.260Z,0
2018-07-09T00:12:57.206Z,0
2018-07-09T00:13:57.206Z,0
2018-07-09T00:14:57.205Z,0
2018-07-09T00:15:57.208Z,0
2018-07-09T00:16:57.209Z,0
2018-07-09T00:17:57.210Z,0
2018-07-09T00:18:57.158Z,0
2018-07-09T00:19:57.204Z,0
2018-07-09T00:20:57.133Z,0
2018-07-09T00:21:57.117Z,0
2018-07-09T00:22:57.167Z,0
2018-07-09T00:23:57.109Z,0
2018-07-09T00:24:57.119Z,0
2018-07-09T00:25:57.210Z,0
2018-07-09T00:26:57.086Z,0
2018-07-09T00:27:57.208Z,0
2018-07-09T00:28:57.161Z,0
2018-07-09T00:29:57.235Z,0
2018-07-09T00:30:57.145Z,0
2018-07-09T00:31:57.153Z,0
2018-07-09T00:32:57.219Z,0
2018-07-09T00:33:57.157Z,0
2018-07-09T00:34:57.156Z,0
2018-07-09T00:35:57.153Z,0
2018-07-09T00:36:57.231Z,0
2018-07-09T00:37:57.153Z,0
2018-07-09T00:38:57.248Z,0
2018-07-09T00:39:57.158Z,0
2018-07-09T00:40:57.201Z,0
2018-07-09T00:41:57.205Z,0
2018-07-09T00:42:57.257Z,0
2018-07-09T00:43:57.190Z,0
2018-07-09T00:44:57.184Z,0
2018-07-09T00:45:57.258Z,0
2018-07-09T00:46:57.181Z,0
2018-07-09T00:47:57.227Z,0
2018-07-09T00:48:57.231Z,0
2018-07-09T00:49:57.232Z,0
2018-07-09T00:50:57.173Z,0
2018-07-09T00:51:57.228Z,0
2018-07-09T00:52:57.228Z,0
2018-07-09T00:53:57.168Z,0
2018-07-09T00:54:57.237Z,0
2018-07-09T00:55:57.164Z,0
2018-07-09T00:56:57.236Z,0
2018-07-09T00:57:57.167Z,0
2018-07-09T00:58:57.268Z,0
2018-07-09T00:59:57.236Z,0
2018-07-09T01:00:57.196Z,0
2018-07-09T01:01:57.239Z,0
2018-07-09T01:02:57.281Z,0
2018-07-09T01:03:57.246Z,0
2018-07-09T01:04:57.263Z,0
2018-07-09T01:05:57.281Z,0
2018-07-09T01:06:57.249Z,0
2018-07-09T01:07:57.243Z,0
2018-07-09T01:08:57.257Z,0
2018-07-09T01:09:57.145Z,0
2018-07-09T01:10:57.201Z,0
2018-07-09T01:11:57.246Z,0
2018-07-09T01:12:57.318Z,0
2018-07-09T01:13:57.223Z,0
2018-07-09T01:14:57.151Z,0
2018-07-09T01:15:57.284Z,0
2018-07-09T01:16:57.189Z,0
2018-07-09T01:17:57.219Z,0
2018-07-09T01:18:57.183Z,0
2018-07-09T01:19:57.251Z,0
2018-07-09T01:20:57.188Z,0
2018-07-09T01:21:57.252Z,0
2018-07-09T01:22:57.147Z,0
2018-07-09T01:23:57.185Z,0
2018-07-09T01:24:57.252Z,0
2018-07-09T01:25:57.190Z,0
2018-07-09T01:26:57.253Z,0
2018-07-09T01:27:57.219Z,0
2018-07-09T01:28:57.255Z,0
2018-07-09T01:29:57.534Z,0
2018-07-09T01:30:57.288Z,0
2018-07-09T01:31:57.224Z,0
2018-07-09T01:32:57.284Z,0
2018-07-09T01:33:57.229Z,0
2018-07-09T01:34:57.234Z,0
2018-07-09T01:35:57.290Z,0
2018-07-09T01:36:57.232Z,0
2018-07-09T01:37:57.313Z,0
2018-07-09T01:38:57.230Z,0
2018-07-09T01:39:57.183Z,0
2018-07-09T01:40:57.168Z,0
2018-07-09T01:41:57.287Z,0
2018-07-09T01:42:57.240Z,0
2018-07-09T01:43:57.304Z,0
2018-07-09T01:44:57.266Z,0
2018-07-09T01:45:57.266Z,0
2018-07-09T01:46:57.265Z,0
2018-07-09T01:47:57.209Z,0
2018-07-09T01:48:57.269Z,0
2018-07-09T01:49:57.273Z,0
2018-07-09T01:50:57.208Z,0
2018-07-09T01:51:57.205Z,0
2018-07-09T01:52:57.270Z,0
2018-07-09T01:53:57.271Z,0
2018-07-09T01:54:57.203Z,0
2018-07-09T01:55:57.273Z,0
2018-07-09T01:56:57.212Z,0
2018-07-09T01:57:57.210Z,0
2018-07-09T01:58:57.179Z,0
2018-07-09T01:59:57.276Z,0
2018-07-09T02:00:57.294Z,0
2018-07-09T02:01:57.317Z,0
2018-07-09T02:02:57.282Z,0
2018-07-09T02:03:57.186Z,0
2018-07-09T02:04:57.280Z,0
2018-07-09T02:05:57.232Z,0
2018-07-09T02:06:57.201Z,0
2018-07-09T02:07:57.248Z,0
2018-07-09T02:08:57.147Z,0
2018-07-09T02:09:57.219Z,0
2018-07-09T02:10:57.268Z,0
2018-07-09T02:11:57.239Z,0
2018-07-09T02:12:57.238Z,0
2018-07-09T02:13:57.260Z,0
2018-07-09T02:14:57.159Z,0
2018-07-09T02:15:57.157Z,0
2018-07-09T02:16:57.273Z,0
2018-07-09T02:17:57.227Z,0
2018-07-09T02:18:57.163Z,0
2018-07-09T02:19:57.161Z,0
2018-07-09T02:20:57.159Z,0
2018-07-09T02:21:57.164Z,0
2018-07-09T02:22:57.228Z,4
2018-07-09T02:23:57.166Z,4
2018-07-09T02:24:57.250Z,4
2018-07-09T02:25:57.201Z,4
2018-07-09T02:26:57.189Z,4
2018-07-09T02:27:57.232Z,0
2018-07-09T02:28:57.290Z,4
2018-07-09T02:29:57.296Z,4
2018-07-09T02:30:57.238Z,4
2018-07-09T02:31:57.209Z,8
2018-07-09T02:32:57.272Z,4
2018-07-09T02:33:57.300Z,8
2018-07-09T02:34:57.323Z,8
2018-07-09T02:35:57.339Z,8
2018-07-09T02:36:57.321Z,12
2018-07-09T02:37:57.309Z,16
2018-07-09T02:38:57.299Z,16
2018-07-09T02:39:57.275Z,16
2018-07-09T02:40:57.363Z,20
2018-07-09T02:41:57.307Z,20
2018-07-09T02:42:57.207Z,28
2018-07-09T02:43:57.329Z,32
2018-07-09T02:44:57.339Z,32
2018-07-09T02:45:57.355Z,40
2018-07-09T02:46:57.206Z,44
2018-07-09T02:47:57.308Z,52
2018-07-09T02:48:57.289Z,56
2018-07-09T02:49:57.212Z,64
2018-07-09T02:50:57.343Z,72
2018-07-09T02:51:57.215Z,84
2018-07-09T02:52:57.220Z,92
2018-07-09T02:53:57.345Z,108
2018-07-09T02:54:57.258Z,120
2018-07-09T02:55:57.349Z,136
2018-07-09T02:56:57.292Z,156
2018-07-09T02:57:57.275Z,172
2018-07-09T02:58:57.277Z,192
2018-07-09T02:59:57.240Z,216
2018-07-09T03:00:57.351Z,244
2018-07-09T03:01:57.277Z,268
2018-07-09T03:02:57.248Z,304
2018-07-09T03:03:57.269Z,336
2018-07-09T03:04:57.240Z,372
2018-07-09T03:05:57.275Z,404
2018-07-09T03:06:57.337Z,444
2018-07-09T03:07:57.235Z,484
2018-07-09T03:08:57.260Z,532
2018-07-09T03:09:57.324Z,576
2018-07-09T03:10:57.328Z,612
2018-07-09T03:11:57.364Z,652
2018-07-09T03:12:57.326Z,696
2018-07-09T03:13:57.248Z,744
2018-07-09T03:14:57.346Z,800
2018-07-09T03:15:57.327Z,864
2018-07-09T03:16:57.293Z,924
2018-07-09T03:17:57.240Z,988
2018-07-09T03:18:57.376Z,1052
2018-07-09T03:19:57.358Z,1120
2018-07-09T03:20:57.297Z,1184
2018-07-09T03:21:57.379Z,1256
2018-07-09T03:22:57.370Z,1332
2018-07-09T03:23:57.239Z,1404
2018-07-09T03:24:57.333Z,1492
2018-07-09T03:25:57.381Z,1576
2018-07-09T03:26:57.241Z,1668
2018-07-09T03:27:57.301Z,1760
2018-07-09T03:28:57.269Z,1848
2018-07-09T03:29:57.337Z,1940
2018-07-09T03:30:57.267Z,2044
2018-07-09T03:31:57.272Z,2152
2018-07-09T03:32:57.338Z,2256
2018-07-09T03:33:57.336Z,2364
2018-07-09T03:34:57.272Z,2476
2018-07-09T03:35:57.273Z,2612
2018-07-09T03:36:57.337Z,2744
2018-07-09T03:37:57.342Z,2896
2018-07-09T03:38:57.325Z,3076
2018-07-09T03:39:57.244Z,3240
2018-07-09T03:40:57.250Z,3408
2018-07-09T03:41:57.245Z,3576
2018-07-09T03:42:57.250Z,3728
2018-07-09T03:43:57.249Z,3860
2018-07-09T03:44:57.254Z,4000
2018-07-09T03:45:57.299Z,4132
2018-07-09T03:46:57.348Z,4288
2018-07-09T03:47:57.250Z,4452
2018-07-09T03:48:57.349Z,4604
2018-07-09T03:49:57.347Z,4700
2018-07-09T03:50:57.284Z,4816
2018-07-09T03:51:57.352Z,4900
2018-07-09T03:52:57.285Z,4944
2018-07-09T03:53:57.349Z,4956
2018-07-09T03:54:57.349Z,5004
2018-07-09T03:55:57.325Z,5060
2018-07-09T03:56:57.288Z,5172
2018-07-09T03:57:57.422Z,5256
2018-07-09T03:58:57.353Z,5236
2018-07-09T03:59:57.356Z,5124
2018-07-09T04:00:57.290Z,5000
2018-07-09T04:01:57.299Z,5000
2018-07-09T04:02:57.296Z,5064
2018-07-09T04:03:57.296Z,5088
2018-07-09T04:04:57.356Z,5252
2018-07-09T04:05:57.389Z,5432
2018-07-09T04:06:57.303Z,5480
2018-07-09T04:07:57.364Z,5560
2018-07-09T04:08:57.312Z,5396
2018-07-09T04:09:57.329Z,5168
2018-07-09T04:10:57.339Z,4964
2018-07-09T04:11:57.363Z,4788
2018-07-09T04:12:57.374Z,4908
2018-07-09T04:13:57.338Z,5200
2018-07-09T04:14:57.393Z,5292
2018-07-09T04:15:57.302Z,5224
2018-07-09T04:16:57.393Z,5892
2018-07-09T04:17:57.328Z,7264
2018-07-09T04:18:57.327Z,8392
2018-07-09T04:19:57.333Z,9212
2018-07-09T04:20:57.463Z,9192
2018-07-09T04:21:57.405Z,8480
2018-07-09T04:22:57.371Z,8448
2018-07-09T04:23:57.402Z,8572
2018-07-09T04:24:57.313Z,8920
2018-07-09T04:25:57.277Z,9132
2018-07-09T04:26:57.391Z,9224
2018-07-09T04:27:57.410Z,9236
2018-07-09T04:28:57.315Z,9472
2018-07-09T04:29:57.377Z,9636
2018-07-09T04:30:57.311Z,9576
2018-07-09T04:31:57.387Z,9788
2018-07-09T04:32:57.308Z,10316
2018-07-09T04:33:57.308Z,10772
2018-07-09T04:34:57.316Z,11084
2018-07-09T04:35:57.314Z,11808
2018-07-09T04:36:57.383Z,12388
2018-07-09T04:37:57.483Z,12696
2018-07-09T04:38:57.381Z,13292
2018-07-09T04:39:57.337Z,13720
2018-07-09T04:40:57.285Z,14052
2018-07-09T04:41:57.384Z,15288
2018-07-09T04:42:57.369Z,16452
2018-07-09T04:43:57.399Z,16840
2018-07-09T04:44:57.302Z,16904
2018-07-09T04:45:57.354Z,17192
2018-07-09T04:46:57.415Z,17444
2018-07-09T04:47:57.347Z,18128
2018-07-09T04:48:57.298Z,18512
2018-07-09T04:49:57.392Z,19264
2018-07-09T04:50:57.371Z,18928
2018-07-09T04:51:57.350Z,18776
2018-07-09T04:52:57.352Z,18488
2018-07-09T04:53:57.423Z,18272
2018-07-09T04:54:57.390Z,17284
2018-07-09T04:55:57.430Z,17008
2018-07-09T04:56:57.366Z,17412
2018-07-09T04:57:57.370Z,16108
2018-07-09T04:58:57.421Z,14300
2018-07-09T04:59:57.295Z,12816
2018-07-09T05:00:57.432Z,12836
2018-07-09T05:01:57.302Z,13652
2018-07-09T05:02:57.397Z,14568
2018-07-09T05:03:57.318Z,15152
2018-07-09T05:04:57.416Z,15360
2018-07-09T05:05:57.336Z,16260
2018-07-09T05:06:57.374Z,17072
2018-07-09T05:07:57.439Z,16692
2018-07-09T05:08:57.370Z,16612
2018-07-09T05:09:57.405Z,16232
2018-07-09T05:10:57.338Z,17048
2018-07-09T05:11:57.451Z,19440
2018-07-09T05:12:57.382Z,21408
2018-07-09T05:13:57.295Z,20404
2018-07-09T05:14:57.431Z,17348
2018-07-09T05:15:57.406Z,15904
2018-07-09T05:16:57.340Z,14612
2018-07-09T05:17:57.463Z,14324
2018-07-09T05:18:57.341Z,14664
2018-07-09T05:19:57.394Z,15456
2018-07-09T05:20:57.366Z,16496
2018-07-09T05:21:57.439Z,17848
2018-07-09T05:22:57.390Z,20392
2018-07-09T05:23:57.389Z,20988
2018-07-09T05:24:57.421Z,19940
2018-07-09T05:25:57.369Z,17964
2018-07-09T05:26:57.338Z,17264
2018-07-09T05:27:57.446Z,18692
2018-07-09T05:28:57.316Z,17536
2018-07-09T05:29:57.377Z,14272
2018-07-09T05:30:57.384Z,12024
2018-07-09T05:31:57.389Z,11096
2018-07-09T05:32:57.317Z,10916
2018-07-09T05:33:57.324Z,11384
2018-07-09T05:34:57.389Z,11972
2018-07-09T05:35:57.458Z,13068
2018-07-09T05:36:57.449Z,15120
2018-07-09T05:37:57.386Z,18676
2018-07-09T05:38:57.392Z,23232
2018-07-09T05:39:57.486Z,26784
2018-07-09T05:40:57.384Z,27584
2018-07-09T05:41:57.422Z,27744
2018-07-09T05:42:57.457Z,27072
2018-07-09T05:43:57.328Z,27264
2018-07-09T05:44:57.331Z,27872
2018-07-09T05:45:57.424Z,28096
2018-07-09T05:46:57.525Z,28288
2018-07-09T05:47:57.348Z,29792
2018-07-09T05:48:57.337Z,46656
2018-07-09T05:49:57.454Z,45600
2018-07-09T05:50:57.394Z,59712
2018-07-09T05:51:57.471Z,37920
2018-07-09T05:52:57.347Z,51712
2018-07-09T05:53:57.432Z,66464
2018-07-09T05:54:57.355Z,58752
2018-07-09T05:55:57.400Z,67904
2018-07-09T05:56:57.399Z,64320
2018-07-09T05:57:57.416Z,63520
2018-07-09T05:58:57.487Z,61600
2018-07-09T05:59:57.358Z,59264
2018-07-09T06:00:57.339Z,66528
2018-07-09T06:01:57.414Z,69952
2018-07-09T06:02:57.410Z,78624
2018-07-09T06:03:57.462Z,79712
2018-07-09T06:04:57.464Z,79168
2018-07-09T06:05:57.473Z,76864
2018-07-09T06:06:57.435Z,79712
2018-07-09T06:07:57.417Z,79040
2018-07-09T06:08:57.458Z,82048
2018-07-09T06:09:57.441Z,76800
2018-07-09T06:10:57.413Z,86208
2018-07-09T06:11:57.403Z,83520
2018-07-09T06:12:57.443Z,64480
2018-07-09T06:13:57.445Z,65696
2018-07-09T06:14:57.415Z,75744
2018-07-09T06:15:57.399Z,80320
2018-07-09T06:16:57.425Z,70784
2018-07-09T06:17:57.405Z,50496
2018-07-09T06:18:57.418Z,19988
2018-07-09T06:19:57.430Z,55648
2018-07-09T06:20:57.412Z,49696
2018-07-09T06:21:57.373Z,69856
2018-07-09T06:22:57.427Z,71200
2018-07-09T06:23:57.490Z,71936
2018-07-09T06:24:57.482Z,73248
2018-07-09T06:25:57.472Z,70752
2018-07-09T06:26:57.424Z,74432
2018-07-09T06:27:57.472Z,74656
2018-07-09T06:28:57.419Z,75552
2018-07-09T06:29:57.377Z,77632
2018-07-09T06:30:57.320Z,80352
2018-07-09T06:31:57.346Z,83328
2018-07-09T06:32:57.410Z,84544
2018-07-09T06:33:57.433Z,84096
2018-07-09T06:34:57.433Z,82464
2018-07-09T06:35:57.419Z,79968
2018-07-09T06:36:57.354Z,78784
2018-07-09T06:37:57.351Z,78560
2018-07-09T06:38:57.352Z,79200
2018-07-09T06:39:57.443Z,80320
2018-07-09T06:40:57.369Z,81024
2018-07-09T06:41:57.484Z,81536
2018-07-09T06:42:57.520Z,81440
2018-07-09T06:43:57.471Z,80192
2018-07-09T06:44:57.437Z,80064
2018-07-09T06:45:57.506Z,78144
2018-07-09T06:46:57.373Z,77888
2018-07-09T06:47:57.371Z,80736
2018-07-09T06:48:57.374Z,84224
2018-07-09T06:49:57.444Z,87840
2018-07-09T06:50:57.448Z,91072
2018-07-09T06:51:57.373Z,92352
2018-07-09T06:52:57.431Z,90560
2018-07-09T06:53:57.471Z,88896
2018-07-09T06:54:57.379Z,85696
2018-07-09T06:55:57.452Z,83584
2018-07-09T06:56:57.374Z,85088
2018-07-09T06:57:57.513Z,86912
2018-07-09T06:58:57.377Z,89760
2018-07-09T06:59:57.393Z,92864
2018-07-09T07:00:57.401Z,96416
2018-07-09T07:01:57.466Z,98400
2018-07-09T07:02:57.472Z,98400
2018-07-09T07:03:57.472Z,96384
2018-07-09T07:04:57.470Z,93888
2018-07-09T07:05:57.429Z,90976
2018-07-09T07:06:57.347Z,88224
2018-07-09T07:07:57.387Z,86720
2018-07-09T07:08:57.552Z,88832
2018-07-09T07:09:57.419Z,92000
2018-07-09T07:10:57.510Z,94560
2018-07-09T07:11:57.512Z,98144
2018-07-09T07:12:57.517Z,99776
2018-07-09T07:13:57.505Z,101664
2018-07-09T07:14:57.463Z,103872
2018-07-09T07:15:57.458Z,105760
2018-07-09T07:16:57.524Z,107584
2018-07-09T07:17:57.527Z,109888
2018-07-09T07:18:57.524Z,110208
2018-07-09T07:19:57.453Z,110688
2018-07-09T07:20:57.576Z,108800
2018-07-09T07:21:57.518Z,108736
2018-07-09T07:22:57.488Z,107072
2018-07-09T07:23:57.492Z,107296
2018-07-09T07:24:57.450Z,105344
2018-07-09T07:25:57.450Z,104960
2018-07-09T07:26:57.474Z,104640
2018-07-09T07:27:57.471Z,106912
2018-07-09T07:28:57.542Z,107936
2018-07-09T07:29:57.463Z,110336
2018-07-09T07:30:57.497Z,112224
2018-07-09T07:31:57.434Z,116640
2018-07-09T07:32:57.433Z,119072
2018-07-09T07:33:57.432Z,118208
2018-07-09T07:34:57.434Z,117184
2018-07-09T07:35:57.501Z,115680
2018-07-09T07:36:57.437Z,113504
2018-07-09T07:37:57.503Z,112704
2018-07-09T07:38:57.448Z,112416
2018-07-09T07:39:57.464Z,115872
2018-07-09T07:40:57.505Z,117280
2018-07-09T07:41:57.481Z,118912
2018-07-09T07:42:57.528Z,118144
2018-07-09T07:43:57.464Z,121536
2018-07-09T07:44:57.551Z,123392
2018-07-09T07:45:57.405Z,125248
2018-07-09T07:46:57.432Z,127072
2018-07-09T07:47:57.481Z,131360
2018-07-09T07:48:57.509Z,134848
2018-07-09T07:49:57.443Z,130944
2018-07-09T07:50:57.517Z,126528
2018-07-09T07:51:57.448Z,121088
2018-07-09T07:52:57.445Z,125568
2018-07-09T07:53:57.446Z,126944
2018-07-09T07:54:57.522Z,126688
2018-07-09T07:55:57.579Z,123008
2018-07-09T07:56:57.514Z,123072
2018-07-09T07:57:57.512Z,123008
2018-07-09T07:58:57.450Z,124160
2018-07-09T07:59:57.418Z,124384
2018-07-09T08:00:57.490Z,123840
2018-07-09T08:01:57.477Z,125728
2018-07-09T08:02:57.615Z,128288
2018-07-09T08:03:57.518Z,130752
2018-07-09T08:04:57.517Z,131104
2018-07-09T08:05:57.420Z,130528
2018-07-09T08:06:57.543Z,133024
2018-07-09T08:07:57.519Z,135552
2018-07-09T08:08:57.493Z,138016
2018-07-09T08:09:57.445Z,139392
2018-07-09T08:10:57.496Z,141184
2018-07-09T08:12:59.667Z,143008
2018-07-09T08:13:13.735Z,141504
2018-07-09T08:13:57.521Z,140448
2018-07-09T08:14:57.490Z,137792
2018-07-09T08:15:57.528Z,132640
2018-07-09T08:16:57.506Z,130496
2018-07-09T08:17:57.506Z,129664
2018-07-09T08:18:57.496Z,132032
2018-07-09T08:19:57.482Z,136096
2018-07-09T08:20:57.530Z,134848
2018-07-09T08:21:57.517Z,136448
2018-07-09T08:22:57.460Z,136064
2018-07-09T08:23:57.436Z,138368
2018-07-09T08:24:57.541Z,141696
2018-07-09T08:25:57.536Z,33504
2018-07-09T08:26:57.439Z,70624
2018-07-09T08:27:57.538Z,144768
2018-07-09T08:28:57.432Z,142912
2018-07-09T08:29:57.470Z,138048
2018-07-09T08:30:57.472Z,141536
2018-07-09T08:31:57.538Z,138496
2018-07-09T08:32:57.479Z,135744
2018-07-09T08:33:57.470Z,136384
2018-07-09T08:34:57.427Z,78400
2018-07-09T08:35:57.540Z,55584
2018-07-09T08:36:57.540Z,75360
2018-07-09T08:37:57.513Z,38080
2018-07-09T08:38:57.481Z,30624
2018-07-09T08:39:57.538Z,139072
2018-07-09T08:40:57.545Z,134656
2018-07-09T08:41:57.500Z,133440
2018-07-09T08:42:57.548Z,136896
2018-07-09T08:43:57.478Z,141792
2018-07-09T08:44:57.546Z,135552
2018-07-09T08:45:57.566Z,149728
2018-07-09T08:46:57.480Z,149024
2018-07-09T08:47:57.547Z,143072
2018-07-09T08:48:57.480Z,135424
2018-07-09T08:49:57.607Z,129184
2018-07-09T08:50:57.479Z,125664
2018-07-09T08:51:57.503Z,124000
2018-07-09T08:52:57.536Z,126560
2018-07-09T08:53:57.430Z,134176
2018-07-09T08:54:57.544Z,142368
2018-07-09T08:55:57.484Z,146784
2018-07-09T08:56:57.458Z,148256
2018-07-09T08:57:57.439Z,148640
2018-07-09T08:58:57.522Z,147296
2018-07-09T08:59:57.571Z,143584
2018-07-09T09:00:57.497Z,138912
2018-07-09T09:01:57.557Z,135168
2018-07-09T09:02:57.556Z,133568
2018-07-09T09:03:57.492Z,136288
2018-07-09T09:04:57.494Z,136160
2018-07-09T09:05:57.558Z,136512
2018-07-09T09:06:57.502Z,137248
2018-07-09T09:07:57.497Z,136096
2018-07-09T09:08:57.563Z,135136
2018-07-09T09:09:57.499Z,133504
2018-07-09T09:10:57.498Z,133024
2018-07-09T09:11:57.569Z,133024
2018-07-09T09:12:57.563Z,134208
2018-07-09T09:13:57.562Z,136064
2018-07-09T09:14:57.500Z,136928
2018-07-09T09:15:57.455Z,140640
2018-07-09T09:16:57.510Z,143520
2018-07-09T09:17:57.580Z,145504
2018-07-09T09:18:57.502Z,149312
2018-07-09T09:19:57.569Z,152032
2018-07-09T09:20:57.547Z,152608
2018-07-09T09:21:57.524Z,148160
2018-07-09T09:22:57.592Z,149856
2018-07-09T09:23:57.506Z,149504
2018-07-09T09:24:57.533Z,148736
2018-07-09T09:25:57.535Z,148576
2018-07-09T09:26:57.588Z,149600
2018-07-09T09:27:57.574Z,148128
2018-07-09T09:28:57.574Z,144672
2018-07-09T09:29:57.480Z,141088
2018-07-09T09:30:57.575Z,138432
2018-07-09T09:31:57.597Z,142560
2018-07-09T09:32:57.482Z,148096
2018-07-09T09:33:57.576Z,152992
2018-07-09T09:34:57.543Z,169920
2018-07-09T09:35:57.480Z,40640
2018-07-09T09:36:57.559Z,35232
2018-07-09T09:37:57.490Z,52544
2018-07-09T09:38:57.610Z,170144
2018-07-09T09:39:57.618Z,102816
2018-07-09T09:40:57.559Z,82176
2018-07-09T09:41:57.613Z,32192
2018-07-09T09:42:57.504Z,60864
2018-07-09T09:43:57.574Z,169408
2018-07-09T09:44:57.491Z,166336
2018-07-09T09:45:57.507Z,165024
2018-07-09T09:46:57.490Z,163552
2018-07-09T09:47:57.563Z,141824
2018-07-09T09:48:57.551Z,131840
2018-07-09T09:49:57.565Z,127552
2018-07-09T09:50:57.486Z,144352
2018-07-09T09:51:57.613Z,155360
2018-07-09T09:52:57.574Z,164192
2018-07-09T09:53:57.600Z,134592
2018-07-09T09:54:57.630Z,153408
2018-07-09T09:55:57.633Z,162272
2018-07-09T09:56:57.625Z,164192
2018-07-09T09:57:57.616Z,164128
2018-07-09T09:58:57.571Z,169472
2018-07-09T09:59:57.619Z,53696
2018-07-09T10:00:57.597Z,178720
2018-07-09T10:01:57.530Z,172032
2018-07-09T10:02:57.531Z,175488
2018-07-09T10:03:57.608Z,177536
2018-07-09T10:04:57.534Z,176768
2018-07-09T10:05:57.531Z,98944
2018-07-09T10:06:57.622Z,64192
2018-07-09T10:07:57.634Z,107584
2018-07-09T10:08:57.535Z,157312
2018-07-09T10:09:57.604Z,141632
2018-07-09T10:10:57.510Z,154656
2018-07-09T10:11:57.503Z,156128
2018-07-09T10:12:57.527Z,168544
2018-07-09T10:13:57.535Z,166816
2018-07-09T10:14:57.795Z,173376
2018-07-09T10:15:57.574Z,181824
2018-07-09T10:16:57.675Z,177920
2018-07-09T10:17:57.513Z,105344
2018-07-09T10:18:57.607Z,165696
2018-07-09T10:19:57.593Z,165152
2018-07-09T10:20:57.505Z,167104
2018-07-09T10:21:57.478Z,179616
2018-07-09T10:22:57.746Z,188640
2018-07-09T10:23:57.567Z,180576
2018-07-09T10:24:57.632Z,192608
2018-07-09T10:25:57.566Z,81824
2018-07-09T10:26:57.510Z,68320
2018-07-09T10:27:57.483Z,193856
2018-07-09T10:28:57.484Z,75392
2018-07-09T10:29:57.506Z,88896
2018-07-09T10:30:57.584Z,68640
2018-07-09T10:31:57.578Z,90272
2018-07-09T10:32:57.652Z,205952
2018-07-09T10:33:57.601Z,72416
2018-07-09T10:34:57.644Z,134752
2018-07-09T10:35:57.659Z,191232
2018-07-09T10:36:57.653Z,71136
2018-07-09T10:37:57.623Z,63680
2018-07-09T10:38:57.666Z,57632
2018-07-09T10:39:57.596Z,52352
2018-07-09T10:40:57.563Z,51808
2018-07-09T10:41:57.625Z,53408
2018-07-09T10:42:57.610Z,57376
2018-07-09T10:43:57.565Z,60704
2018-07-09T10:44:57.527Z,57376
2018-07-09T10:45:57.648Z,54912
2018-07-09T10:46:57.606Z,54912
2018-07-09T10:47:57.660Z,56256
2018-07-09T10:48:57.550Z,52704
2018-07-09T10:49:57.569Z,50656
2018-07-09T10:50:57.633Z,50496
2018-07-09T10:51:57.567Z,53440
2018-07-09T10:52:57.629Z,57600
2018-07-09T10:53:57.631Z,61536
2018-07-09T10:54:57.512Z,64864
2018-07-09T10:55:57.567Z,70048
2018-07-09T10:56:57.638Z,76608
2018-07-09T10:57:57.632Z,87360
2018-07-09T10:58:57.569Z,67136
2018-07-09T10:59:57.569Z,66720
2018-07-09T11:00:57.640Z,64448
2018-07-09T11:01:57.562Z,59264
2018-07-09T11:02:57.535Z,52320
2018-07-09T11:03:57.608Z,47840
2018-07-09T11:04:57.596Z,46912
2018-07-09T11:05:57.548Z,50112
2018-07-09T11:06:57.637Z,54656
2018-07-09T11:07:57.596Z,57696
2018-07-09T11:08:57.680Z,62880
2018-07-09T11:09:57.616Z,72896
2018-07-09T11:10:57.664Z,78016
2018-07-09T11:11:57.662Z,92512
2018-07-09T11:12:57.608Z,70176
2018-07-09T11:13:57.602Z,66240
2018-07-09T11:14:57.661Z,64960
2018-07-09T11:15:57.619Z,63744
2018-07-09T11:16:57.626Z,61824
2018-07-09T11:17:57.600Z,58592
2018-07-09T11:18:57.623Z,55808
2018-07-09T11:19:57.649Z,52832
2018-07-09T11:20:57.650Z,50656
2018-07-09T11:21:57.685Z,49152
2018-07-09T11:22:57.685Z,49280
2018-07-09T11:23:57.551Z,53504
2018-07-09T11:24:57.621Z,59328
2018-07-09T11:25:57.655Z,62304
2018-07-09T11:26:57.560Z,59584
2018-07-09T11:27:57.579Z,59424
2018-07-09T11:28:57.653Z,59680
2018-07-09T11:29:57.586Z,59424
2018-07-09T11:30:57.594Z,56896
2018-07-09T11:31:57.644Z,59168
2018-07-09T11:32:57.584Z,66016
2018-07-09T11:33:57.622Z,66496
2018-07-09T11:34:57.567Z,65024
2018-07-09T11:35:57.749Z,64608
2018-07-09T11:36:57.621Z,66336
2018-07-09T11:37:57.559Z,68608
2018-07-09T11:38:57.587Z,69280
2018-07-09T11:39:57.668Z,69984
2018-07-09T11:40:57.618Z,70496
2018-07-09T11:41:57.550Z,68672
2018-07-09T11:42:57.600Z,64576
2018-07-09T11:43:57.627Z,62496
2018-07-09T11:44:57.687Z,61184
2018-07-09T11:45:57.667Z,61632
2018-07-09T11:46:57.601Z,64576
2018-07-09T11:47:57.612Z,67680
2018-07-09T11:48:57.668Z,67168
2018-07-09T11:49:57.604Z,62272
2018-07-09T11:50:57.619Z,60480
2018-07-09T11:51:57.711Z,64480
2018-07-09T11:52:57.700Z,69024
2018-07-09T11:53:57.579Z,71296
2018-07-09T11:54:57.652Z,71456
2018-07-09T11:55:57.599Z,70336
2018-07-09T11:56:57.578Z,68160
2018-07-09T11:57:57.715Z,65568
2018-07-09T11:58:57.763Z,64224
2018-07-09T11:59:57.639Z,65152
2018-07-09T12:00:57.617Z,68288
2018-07-09T12:01:57.613Z,72896
2018-07-09T12:02:57.677Z,77536
2018-07-09T12:03:57.620Z,81952
2018-07-09T12:04:57.683Z,85984
2018-07-09T12:05:57.619Z,89440
2018-07-09T12:06:57.612Z,93312
2018-07-09T12:07:57.687Z,94496
2018-07-09T12:08:57.684Z,94880
2018-07-09T12:09:57.616Z,86048
2018-07-09T12:10:57.551Z,77600
2018-07-09T12:11:57.676Z,68352
2018-07-09T12:12:57.611Z,61888
2018-07-09T12:13:57.575Z,57792
2018-07-09T12:14:57.622Z,55040
2018-07-09T12:15:57.752Z,52704
2018-07-09T12:16:57.675Z,49920
2018-07-09T12:17:57.625Z,46208
2018-07-09T12:18:57.677Z,45120
2018-07-09T12:19:57.682Z,46976
2018-07-09T12:20:57.686Z,49888
2018-07-09T12:21:57.592Z,52288
2018-07-09T12:22:57.619Z,53056
2018-07-09T12:23:57.684Z,53152
2018-07-09T12:24:57.626Z,52416
2018-07-09T12:25:57.642Z,50304
2018-07-09T12:26:57.628Z,46816
2018-07-09T12:27:57.600Z,42880
2018-07-09T12:28:57.685Z,39072
2018-07-09T12:29:57.627Z,36704
2018-07-09T12:30:57.729Z,35456
2018-07-09T12:31:57.734Z,34688
2018-07-09T12:32:57.673Z,34240
2018-07-09T12:33:57.602Z,34688
2018-07-09T12:34:57.714Z,35584
2018-07-09T12:35:57.731Z,36128
2018-07-09T12:36:57.610Z,36256
2018-07-09T12:37:57.622Z,36512
2018-07-09T12:38:57.610Z,37376
2018-07-09T12:39:57.655Z,39232
2018-07-09T12:40:57.744Z,41920
2018-07-09T12:41:57.664Z,44384
2018-07-09T12:42:57.608Z,45664
2018-07-09T12:43:57.733Z,46080
2018-07-09T12:44:57.705Z,45568
2018-07-09T12:45:57.739Z,44576
2018-07-09T12:46:57.667Z,43712
2018-07-09T12:47:57.629Z,42912
2018-07-09T12:48:57.610Z,42656
2018-07-09T12:49:57.733Z,42624
2018-07-09T12:50:57.733Z,42176
2018-07-09T12:51:57.677Z,40576
2018-07-09T12:52:57.711Z,38080
2018-07-09T12:53:57.631Z,35392
2018-07-09T12:54:57.631Z,33184
2018-07-09T12:55:57.674Z,31520
2018-07-09T12:56:57.620Z,30528
2018-07-09T12:57:57.693Z,29984
2018-07-09T12:58:57.739Z,28768
2018-07-09T12:59:57.668Z,26272
2018-07-09T13:00:57.617Z,23968
2018-07-09T13:01:57.589Z,23520
2018-07-09T13:02:57.711Z,24480
2018-07-09T13:03:57.594Z,25920
2018-07-09T13:04:57.712Z,27648
2018-07-09T13:05:57.703Z,29760
2018-07-09T13:06:57.679Z,32544
2018-07-09T13:07:57.670Z,37024
2018-07-09T13:08:57.734Z,42272
2018-07-09T13:09:57.624Z,47360
2018-07-09T13:10:57.721Z,52320
2018-07-09T13:11:57.725Z,56064
2018-07-09T13:12:57.628Z,58880